createdAt,value
2022-09-06T00:00:40.275Z,989.66
2022-09-06T00:01:40.266Z,989.64
2022-09-06T00:02:40.273Z,989.58
2022-09-06T00:03:40.332Z,989.64
2022-09-06T00:04:40.254Z,989.67
2022-09-06T00:05:40.222Z,989.71
2022-09-06T00:06:40.210Z,989.74
2022-09-06T00:07:40.272Z,989.67
2022-09-06T00:08:40.205Z,989.68
2022-09-06T00:09:40.181Z,989.60
2022-09-06T00:10:40.196Z,989.67
2022-09-06T00:11:40.188Z,989.66
2022-09-06T00:12:40.149Z,989.73
2022-09-06T00:13:40.159Z,989.66
2022-09-06T00:14:40.126Z,989.66
2022-09-06T00:15:40.220Z,989.66
2022-09-06T00:16:40.103Z,989.72
2022-09-06T00:17:40.124Z,989.65
2022-09-06T00:18:40.102Z,989.67
2022-09-06T00:19:40.074Z,989.69
2022-09-06T00:20:40.060Z,989.69
2022-09-06T00:21:40.049Z,989.69
2022-09-06T00:22:40.045Z,989.64
2022-09-06T00:23:40.108Z,989.70
2022-09-06T00:24:40.019Z,989.73
2022-09-06T00:25:40.007Z,989.75
2022-09-06T00:26:39.996Z,989.80
2022-09-06T00:27:41.010Z,989.86
2022-09-06T00:28:40.993Z,989.84
2022-09-06T00:29:40.223Z,989.85
2022-09-06T00:30:40.130Z,989.90
2022-09-06T00:31:40.959Z,989.92
2022-09-06T00:32:40.028Z,989.94
2022-09-06T00:33:39.968Z,989.94
2022-09-06T00:34:39.921Z,989.99
2022-09-06T00:35:39.916Z,989.99
2022-09-06T00:36:39.928Z,989.97
2022-09-06T00:37:39.880Z,990.02
2022-09-06T00:38:39.886Z,989.97
2022-09-06T00:39:39.918Z,990.03
2022-09-06T00:40:39.846Z,989.98
2022-09-06T00:41:39.833Z,990.01
2022-09-06T00:42:39.826Z,989.97
2022-09-06T00:43:39.841Z,990.01
2022-09-06T00:44:39.804Z,990.00
2022-09-06T00:45:39.824Z,990.00
2022-09-06T00:46:39.833Z,990.01
2022-09-06T00:47:39.794Z,989.99
2022-09-06T00:48:39.820Z,990.00
2022-09-06T00:49:39.761Z,990.02
2022-09-06T00:50:39.752Z,989.98
2022-09-06T00:51:39.741Z,989.97
2022-09-06T00:52:39.730Z,989.96
2022-09-06T00:53:39.735Z,989.94
2022-09-06T00:54:39.762Z,989.95
2022-09-06T00:55:39.699Z,989.93
2022-09-06T00:56:39.697Z,989.92
2022-09-06T00:57:39.672Z,989.95
2022-09-06T00:58:39.692Z,989.99
2022-09-06T00:59:39.653Z,990.03
2022-09-06T01:00:39.638Z,990.04
2022-09-06T01:01:39.754Z,990.02
2022-09-06T01:02:39.777Z,989.99
2022-09-06T01:03:39.631Z,990.06
2022-09-06T01:04:39.613Z,990.03
2022-09-06T01:05:39.587Z,990.02
2022-09-06T01:06:39.585Z,990.02
2022-09-06T01:07:39.561Z,990.02
2022-09-06T01:08:39.652Z,990.03
2022-09-06T01:09:39.541Z,990.06
2022-09-06T01:10:39.539Z,990.07
2022-09-06T01:11:39.527Z,990.04
2022-09-06T01:12:39.521Z,990.02
2022-09-06T01:13:39.517Z,990.04
2022-09-06T01:14:39.561Z,990.05
2022-09-06T01:15:39.535Z,990.06
2022-09-06T01:16:39.478Z,990.03
2022-09-06T01:17:39.451Z,990.08
2022-09-06T01:18:39.479Z,990.08
2022-09-06T01:19:39.432Z,990.06
2022-09-06T01:20:39.484Z,990.07
2022-09-06T01:21:39.419Z,990.13
2022-09-06T01:22:39.411Z,990.04
2022-09-06T01:23:39.406Z,990.07
2022-09-06T01:24:39.389Z,990.06
2022-09-06T01:25:39.380Z,990.03
2022-09-06T01:26:39.433Z,990.10
2022-09-06T01:27:39.347Z,990.06
2022-09-06T01:28:39.339Z,990.08
2022-09-06T01:29:39.340Z,990.08
2022-09-06T01:30:39.363Z,990.11
2022-09-06T01:31:39.307Z,990.11
2022-09-06T01:32:39.323Z,990.17
2022-09-06T01:33:39.292Z,990.17
2022-09-06T01:34:39.296Z,990.12
2022-09-06T01:35:39.259Z,990.18
2022-09-06T01:36:49.651Z,990.19
2022-09-06T01:37:40.239Z,990.13
2022-09-06T01:38:39.275Z,990.20
2022-09-06T01:39:39.429Z,990.20
2022-09-06T01:40:39.212Z,990.17
2022-09-06T01:41:39.195Z,990.14
2022-09-06T01:42:39.192Z,990.12
2022-09-06T01:43:39.171Z,990.15
2022-09-06T01:44:39.210Z,990.14
2022-09-06T01:45:39.154Z,990.13
2022-09-06T01:46:39.204Z,990.11
2022-09-06T01:47:39.134Z,990.13
2022-09-06T01:48:39.130Z,990.12
2022-09-06T01:49:41.147Z,990.10
2022-09-06T01:50:39.208Z,990.03
2022-09-06T01:51:39.084Z,990.02
2022-09-06T01:52:39.076Z,990.04
2022-09-06T01:53:39.066Z,990.09
2022-09-06T01:54:39.083Z,990.06
2022-09-06T01:55:39.064Z,990.13
2022-09-06T01:56:39.274Z,990.12
2022-09-06T01:57:39.029Z,990.11
2022-09-06T01:58:39.014Z,990.08
2022-09-06T01:59:39.055Z,990.09
2022-09-06T02:00:38.996Z,990.12
2022-09-06T02:01:39.055Z,990.14
2022-09-06T02:02:39.075Z,990.13
2022-09-06T02:03:38.962Z,990.10
2022-09-06T02:04:38.991Z,990.10
2022-09-06T02:05:38.942Z,990.12
2022-09-06T02:06:38.931Z,990.12
2022-09-06T02:07:38.912Z,990.09
2022-09-06T02:08:38.905Z,990.11
2022-09-06T02:09:38.909Z,990.08
2022-09-06T02:10:38.914Z,990.04
2022-09-06T02:11:38.867Z,990.09
2022-09-06T02:12:38.860Z,990.07
2022-09-06T02:13:38.850Z,990.09
2022-09-06T02:14:38.866Z,990.03
2022-09-06T02:15:38.870Z,990.04
2022-09-06T02:16:38.891Z,990.09
2022-09-06T02:17:38.818Z,990.06
2022-09-06T02:18:38.808Z,990.05
2022-09-06T02:19:38.801Z,990.10
2022-09-06T02:20:38.776Z,990.11
2022-09-06T02:21:38.760Z,990.08
2022-09-06T02:22:38.753Z,990.17
2022-09-06T02:23:38.758Z,990.11
2022-09-06T02:24:38.808Z,990.15
2022-09-06T02:25:38.964Z,990.19
2022-09-06T02:26:39.114Z,990.24
2022-09-06T02:27:38.899Z,990.20
2022-09-06T02:28:39.638Z,990.22
2022-09-06T02:29:38.691Z,990.27
2022-09-06T02:30:38.793Z,990.23
2022-09-06T02:31:38.723Z,990.24
2022-09-06T02:32:38.738Z,990.26
2022-09-06T02:33:38.663Z,990.26
2022-09-06T02:34:38.662Z,990.26
2022-09-06T02:35:38.652Z,990.25
2022-09-06T02:36:38.699Z,990.27
2022-09-06T02:37:38.612Z,990.25
2022-09-06T02:38:38.640Z,990.23
2022-09-06T02:39:38.820Z,990.27
2022-09-06T02:40:38.609Z,990.32
2022-09-06T02:41:38.676Z,990.36
2022-09-06T02:42:38.587Z,990.40
2022-09-06T02:43:38.545Z,990.40
2022-09-06T02:44:38.681Z,990.37
2022-09-06T02:45:38.560Z,990.43
2022-09-06T02:46:38.537Z,990.38
2022-09-06T02:47:38.541Z,990.36
2022-09-06T02:48:38.478Z,990.36
2022-09-06T02:49:38.590Z,990.37
2022-09-06T02:50:38.461Z,990.37
2022-09-06T02:51:38.448Z,990.34
2022-09-06T02:52:38.451Z,990.31
2022-09-06T02:53:38.447Z,990.33
2022-09-06T02:54:38.440Z,990.36
2022-09-06T02:55:38.428Z,990.38
2022-09-06T02:56:38.473Z,990.36
2022-09-06T02:57:38.390Z,990.30
2022-09-06T02:58:38.372Z,990.31
2022-09-06T02:59:38.428Z,990.26
2022-09-06T03:00:38.360Z,990.29
2022-09-06T03:01:38.444Z,990.24
2022-09-06T03:02:38.457Z,990.28
2022-09-06T03:03:38.355Z,990.25
2022-09-06T03:04:38.353Z,990.23
2022-09-06T03:05:38.998Z,990.21
2022-09-06T03:06:38.362Z,990.21
2022-09-06T03:07:38.451Z,990.18
2022-09-06T03:08:38.268Z,990.18
2022-09-06T03:09:38.338Z,990.19
2022-09-06T03:10:38.253Z,990.11
2022-09-06T03:11:38.243Z,990.17
2022-09-06T03:12:38.219Z,990.20
2022-09-06T03:13:38.207Z,990.18
2022-09-06T03:14:38.220Z,990.15
2022-09-06T03:15:38.199Z,990.12
2022-09-06T03:16:38.234Z,990.16
2022-09-06T03:17:38.172Z,990.16
2022-09-06T03:18:38.162Z,990.13
2022-09-06T03:19:38.181Z,990.18
2022-09-06T03:20:38.135Z,990.11
2022-09-06T03:21:38.120Z,990.12
2022-09-06T03:22:38.140Z,990.15
2022-09-06T03:23:38.097Z,990.14
2022-09-06T03:24:38.109Z,990.13
2022-09-06T03:25:38.090Z,990.10
2022-09-06T03:26:38.111Z,990.18
2022-09-06T03:27:38.070Z,990.17
2022-09-06T03:28:38.056Z,990.18
2022-09-06T03:29:38.040Z,990.11
2022-09-06T03:30:38.102Z,990.10
2022-09-06T03:31:38.142Z,990.17
2022-09-06T03:32:38.003Z,990.17
2022-09-06T03:33:39.233Z,990.16
2022-09-06T03:34:38.642Z,990.11
2022-09-06T03:35:38.582Z,990.10
2022-09-06T03:36:37.960Z,990.07
2022-09-06T03:37:37.952Z,990.13
2022-09-06T03:38:37.963Z,990.13
2022-09-06T03:39:37.984Z,990.16
2022-09-06T03:40:37.925Z,990.13
2022-09-06T03:41:37.919Z,990.12
2022-09-06T03:42:37.947Z,990.09
2022-09-06T03:43:37.941Z,990.16
2022-09-06T03:44:37.879Z,990.21
2022-09-06T03:45:37.914Z,990.20
2022-09-06T03:46:37.883Z,990.10
2022-09-06T03:47:37.863Z,990.01
2022-09-06T03:48:37.856Z,989.94
2022-09-06T03:49:37.829Z,989.97
2022-09-06T03:50:37.854Z,989.96
2022-09-06T03:51:37.830Z,990.00
2022-09-06T03:52:37.795Z,989.95
2022-09-06T03:53:37.816Z,989.92
2022-09-06T03:54:37.781Z,989.85
2022-09-06T03:55:37.792Z,989.86
2022-09-06T03:56:37.766Z,989.84
2022-09-06T03:57:37.742Z,989.87
2022-09-06T03:58:37.759Z,989.89
2022-09-06T03:59:37.755Z,989.95
2022-09-06T04:00:37.754Z,989.93
2022-09-06T04:01:37.783Z,989.93
2022-09-06T04:02:37.755Z,989.93
2022-09-06T04:03:37.687Z,989.96
2022-09-06T04:04:37.665Z,989.98
2022-09-06T04:05:37.671Z,990.01
2022-09-06T04:06:37.644Z,990.04
2022-09-06T04:07:37.628Z,990.11
2022-09-06T04:08:37.638Z,990.10
2022-09-06T04:09:37.607Z,990.12
2022-09-06T04:10:37.595Z,990.05
2022-09-06T04:11:37.598Z,990.05
2022-09-06T04:12:37.626Z,990.16
2022-09-06T04:13:37.638Z,990.10
2022-09-06T04:14:37.596Z,990.16
2022-09-06T04:15:37.547Z,990.07
2022-09-06T04:16:37.630Z,990.11
2022-09-06T04:17:37.527Z,990.05
2022-09-06T04:18:37.537Z,990.07
2022-09-06T04:19:37.499Z,990.05
2022-09-06T04:20:37.549Z,990.03
2022-09-06T04:21:37.494Z,989.99
2022-09-06T04:22:37.482Z,990.08
2022-09-06T04:23:39.941Z,990.07
2022-09-06T04:24:37.458Z,990.08
2022-09-06T04:25:37.481Z,990.06
2022-09-06T04:26:37.465Z,990.08
2022-09-06T04:27:37.415Z,990.13
2022-09-06T04:28:37.418Z,990.09
2022-09-06T04:29:37.394Z,990.14
2022-09-06T04:30:37.387Z,990.09
2022-09-06T04:31:37.452Z,990.08
2022-09-06T04:32:37.423Z,990.04
2022-09-06T04:33:37.378Z,990.02
2022-09-06T04:34:37.348Z,990.08
2022-09-06T04:35:37.334Z,990.05
2022-09-06T04:36:37.338Z,990.02
2022-09-06T04:37:37.306Z,990.07
2022-09-06T04:38:37.328Z,990.10
2022-09-06T04:39:37.349Z,990.09
2022-09-06T04:40:37.334Z,990.03
2022-09-06T04:41:37.265Z,990.13
2022-09-06T04:42:37.247Z,990.08
2022-09-06T04:43:37.274Z,990.08
2022-09-06T04:44:37.273Z,990.10
2022-09-06T04:45:37.287Z,990.08
2022-09-06T04:46:37.258Z,990.09
2022-09-06T04:47:37.224Z,990.13
2022-09-06T04:48:37.201Z,990.10
2022-09-06T04:49:37.196Z,990.15
2022-09-06T04:50:37.167Z,990.19
2022-09-06T04:51:37.161Z,990.18
2022-09-06T04:52:37.156Z,990.20
2022-09-06T04:53:37.166Z,990.21
2022-09-06T04:54:37.142Z,990.24
2022-09-06T04:55:37.135Z,990.27
2022-09-06T04:56:37.175Z,990.25
2022-09-06T04:57:40.906Z,990.22
2022-09-06T04:58:38.097Z,990.20
2022-09-06T04:59:37.122Z,990.20
2022-09-06T05:00:37.050Z,990.24
2022-09-06T05:01:37.050Z,990.21
2022-09-06T05:02:37.088Z,990.17
2022-09-06T05:03:37.079Z,990.19
2022-09-06T05:04:37.035Z,990.17
2022-09-06T05:05:36.999Z,990.25
2022-09-06T05:06:36.998Z,990.22
2022-09-06T05:07:36.973Z,990.22
2022-09-06T05:08:36.982Z,990.21
2022-09-06T05:09:36.957Z,990.25
2022-09-06T05:10:38.129Z,990.22
2022-09-06T05:11:38.231Z,990.20
2022-09-06T05:12:42.059Z,990.19
2022-09-06T05:13:37.931Z,990.21
2022-09-06T05:14:36.933Z,990.27
2022-09-06T05:15:36.929Z,990.26
2022-09-06T05:16:36.977Z,990.29
2022-09-06T05:17:36.884Z,990.28
2022-09-06T05:18:36.905Z,990.33
2022-09-06T05:19:37.020Z,990.30
2022-09-06T05:20:38.127Z,990.41
2022-09-06T05:21:36.823Z,990.42
2022-09-06T05:22:36.819Z,990.38
2022-09-06T05:23:36.978Z,990.43
2022-09-06T05:24:36.844Z,990.46
2022-09-06T05:25:36.825Z,990.41
2022-09-06T05:26:36.800Z,990.46
2022-09-06T05:27:36.786Z,990.43
2022-09-06T05:28:36.834Z,990.51
2022-09-06T05:29:38.194Z,990.43
2022-09-06T05:30:36.727Z,990.42
2022-09-06T05:31:36.795Z,990.43
2022-09-06T05:32:36.704Z,990.45
2022-09-06T05:33:36.723Z,990.52
2022-09-06T05:34:36.719Z,990.50
2022-09-06T05:35:36.711Z,990.56
2022-09-06T05:36:36.691Z,990.55
2022-09-06T05:37:36.762Z,990.59
2022-09-06T05:38:38.184Z,990.56
2022-09-06T05:39:36.692Z,990.58
2022-09-06T05:40:36.635Z,990.62
2022-09-06T05:41:36.651Z,990.61
2022-09-06T05:42:36.607Z,990.66
2022-09-06T05:43:36.629Z,990.64
2022-09-06T05:44:36.611Z,990.71
2022-09-06T05:45:36.647Z,990.75
2022-09-06T05:46:36.683Z,990.77
2022-09-06T05:47:38.173Z,990.75
2022-09-06T05:48:37.339Z,990.72
2022-09-06T05:49:36.519Z,990.77
2022-09-06T05:50:36.508Z,990.80
2022-09-06T05:51:36.520Z,990.74
2022-09-06T05:52:36.513Z,990.71
2022-09-06T05:53:36.540Z,990.68
2022-09-06T05:54:36.503Z,990.73
2022-09-06T05:55:41.105Z,990.74
2022-09-06T05:56:38.473Z,990.73
2022-09-06T05:57:36.432Z,990.73
2022-09-06T05:58:36.423Z,990.76
2022-09-06T05:59:36.412Z,990.74
2022-09-06T06:00:36.413Z,990.81
2022-09-06T06:01:36.487Z,990.73
2022-09-06T06:02:36.518Z,990.79
2022-09-06T06:03:36.409Z,990.73
2022-09-06T06:04:37.239Z,990.75
2022-09-06T06:05:36.574Z,990.75
2022-09-06T06:06:36.345Z,990.73
2022-09-06T06:07:36.354Z,990.75
2022-09-06T06:08:36.335Z,990.75
2022-09-06T06:09:36.310Z,990.75
2022-09-06T06:10:38.649Z,990.79
2022-09-06T06:11:36.315Z,990.78
2022-09-06T06:12:36.380Z,990.85
2022-09-06T06:13:36.904Z,990.88
2022-09-06T06:14:37.129Z,990.91
2022-09-06T06:15:36.256Z,990.86
2022-09-06T06:16:36.325Z,990.88
2022-09-06T06:17:36.222Z,990.82
2022-09-06T06:18:36.222Z,990.85
2022-09-06T06:19:36.198Z,990.84
2022-09-06T06:20:36.207Z,990.84
2022-09-06T06:21:36.300Z,990.85
2022-09-06T06:22:37.043Z,990.81
2022-09-06T06:23:37.102Z,990.82
2022-09-06T06:24:36.223Z,990.80
2022-09-06T06:25:36.129Z,990.84
2022-09-06T06:26:36.120Z,990.81
2022-09-06T06:27:36.108Z,990.83
2022-09-06T06:28:36.122Z,990.80
2022-09-06T06:29:36.184Z,990.82
2022-09-06T06:30:36.330Z,990.87
2022-09-06T06:31:36.279Z,990.80
2022-09-06T06:32:36.654Z,990.74
2022-09-06T06:33:36.046Z,990.81
2022-09-06T06:34:36.067Z,990.80
2022-09-06T06:35:39.982Z,990.77
2022-09-06T06:36:36.032Z,990.73
2022-09-06T06:37:36.015Z,990.73
2022-09-06T06:38:36.035Z,990.75
2022-09-06T06:39:37.291Z,990.75
2022-09-06T06:40:37.049Z,990.70
2022-09-06T06:41:36.457Z,990.70
2022-09-06T06:42:35.945Z,990.71
2022-09-06T06:43:35.953Z,990.68
2022-09-06T06:44:35.920Z,990.70
2022-09-06T06:45:35.975Z,990.74
2022-09-06T06:46:35.906Z,990.80
2022-09-06T06:47:35.948Z,990.78
2022-09-06T06:48:35.992Z,990.76
2022-09-06T06:49:37.197Z,990.72
2022-09-06T06:50:35.876Z,990.74
2022-09-06T06:51:35.867Z,990.68
2022-09-06T06:52:35.837Z,990.67
2022-09-06T06:53:35.867Z,990.70
2022-09-06T06:54:35.835Z,990.64
2022-09-06T06:55:35.819Z,990.77
2022-09-06T06:56:35.879Z,990.78
2022-09-06T06:57:35.837Z,990.77
2022-09-06T06:58:37.352Z,990.76
2022-09-06T06:59:35.782Z,990.75
2022-09-06T07:00:35.864Z,990.79
2022-09-06T07:01:35.886Z,990.73
2022-09-06T07:02:35.730Z,990.77
2022-09-06T07:03:35.734Z,990.80
2022-09-06T07:04:35.753Z,990.80
2022-09-06T07:07:39.563Z,990.71
2022-09-06T07:08:35.669Z,990.70
2022-09-06T07:10:36.663Z,990.56
2022-09-06T07:11:35.651Z,990.53
2022-09-06T07:12:35.623Z,990.55
2022-09-06T07:13:35.623Z,990.58
2022-09-06T07:14:35.646Z,990.69
2022-09-06T07:15:38.422Z,990.79
2022-09-06T07:16:36.927Z,990.88
2022-09-06T07:17:35.569Z,990.90
2022-09-06T07:18:35.600Z,990.91
2022-09-06T07:22:35.573Z,990.90
2022-09-06T07:24:36.573Z,990.97
2022-09-06T07:25:35.748Z,991.00
2022-09-06T07:26:35.628Z,991.09
2022-09-06T07:27:50.848Z,991.16
2022-09-06T07:28:36.484Z,991.15
2022-09-06T07:29:35.445Z,991.20
2022-09-06T07:30:35.520Z,991.12
2022-09-06T07:32:36.429Z,991.15
2022-09-06T07:33:35.573Z,991.17
2022-09-06T07:34:35.613Z,991.12
2022-09-06T07:35:35.406Z,991.08
2022-09-06T07:36:35.370Z,991.07
2022-09-06T07:37:35.360Z,991.03
2022-09-06T07:38:35.427Z,991.13
2022-09-06T07:39:35.410Z,991.11
2022-09-06T07:40:35.362Z,991.06
2022-09-06T07:41:35.938Z,991.03
2022-09-06T07:42:36.150Z,991.07
2022-09-06T07:43:35.509Z,991.06
2022-09-06T07:44:35.283Z,991.08
2022-09-06T07:45:35.270Z,991.07
2022-09-06T07:46:35.303Z,991.09
2022-09-06T07:48:36.313Z,991.15
2022-09-06T07:49:35.229Z,991.13
2022-09-06T07:50:51.847Z,991.22
2022-09-06T07:51:36.212Z,991.22
2022-09-06T07:53:36.704Z,991.24
2022-09-06T07:54:35.176Z,991.24
2022-09-06T07:55:35.182Z,991.28
2022-09-06T07:56:35.223Z,991.20
2022-09-06T07:57:35.154Z,991.16
2022-09-06T07:58:35.181Z,991.23
2022-09-06T07:59:36.702Z,991.22
2022-09-06T08:00:35.243Z,991.22
2022-09-06T08:01:35.151Z,991.20
2022-09-06T08:02:35.170Z,991.17
2022-09-06T08:03:35.126Z,991.19
2022-09-06T08:04:35.112Z,991.11
2022-09-06T08:07:39.347Z,991.07
2022-09-06T08:09:36.391Z,991.12
2022-09-06T08:10:35.004Z,991.14
2022-09-06T08:11:35.008Z,991.06
2022-09-06T08:12:34.992Z,991.13
2022-09-06T08:13:35.040Z,991.11
2022-09-06T08:14:35.063Z,991.09
2022-09-06T08:15:35.338Z,991.07
2022-09-06T08:16:35.023Z,991.06
2022-09-06T08:17:35.059Z,991.09
2022-09-06T08:18:35.174Z,991.10
2022-09-06T08:19:34.920Z,991.11
2022-09-06T08:20:34.899Z,991.09
2022-09-06T08:21:34.917Z,991.13
2022-09-06T08:22:34.879Z,991.09
2022-09-06T08:23:34.948Z,991.14
2022-09-06T08:24:34.919Z,991.09
2022-09-06T08:25:34.849Z,991.14
2022-09-06T08:26:34.991Z,991.10
2022-09-06T08:27:34.915Z,991.12
2022-09-06T08:28:34.826Z,991.06
2022-09-06T08:29:34.804Z,991.09
2022-09-06T08:30:34.822Z,991.03
2022-09-06T08:31:34.840Z,991.07
2022-09-06T08:32:34.798Z,991.13
2022-09-06T08:33:34.832Z,991.15
2022-09-06T08:34:34.745Z,991.17
2022-09-06T08:35:34.808Z,991.24
2022-09-06T08:36:34.999Z,991.28
2022-09-06T08:37:34.716Z,991.32
2022-09-06T08:38:34.749Z,991.40
2022-09-06T08:39:34.721Z,991.41
2022-09-06T08:40:34.727Z,991.40
2022-09-06T08:41:34.673Z,991.47
2022-09-06T08:42:34.677Z,991.40
2022-09-06T08:43:34.697Z,991.46
2022-09-06T08:45:35.890Z,991.45
2022-09-06T08:46:34.683Z,991.52
2022-09-06T08:47:34.603Z,991.45
2022-09-06T08:48:34.620Z,991.54
2022-09-06T08:49:34.670Z,991.52
2022-09-06T08:50:34.615Z,991.55
2022-09-06T08:51:38.401Z,991.60
2022-09-06T08:52:34.555Z,991.64
2022-09-06T08:53:34.669Z,991.68
2022-09-06T08:54:34.728Z,991.66
2022-09-06T08:55:34.522Z,991.57
2022-09-06T08:56:34.521Z,991.45
2022-09-06T08:57:39.488Z,991.32
2022-09-06T08:58:35.526Z,991.24
2022-09-06T08:59:34.504Z,991.21
2022-09-06T09:00:34.545Z,991.16
2022-09-06T09:01:34.592Z,991.11
2022-09-06T09:02:34.542Z,991.05
2022-09-06T09:03:34.470Z,990.99
2022-09-06T09:04:34.430Z,990.95
2022-09-06T09:05:34.417Z,990.92
2022-09-06T09:06:34.437Z,990.86
2022-09-06T09:07:34.384Z,990.85
2022-09-06T09:08:34.407Z,990.83
2022-09-06T09:09:34.368Z,990.78
2022-09-06T09:10:34.705Z,990.75
2022-09-06T09:11:34.525Z,990.64
2022-09-06T09:12:34.336Z,990.54
2022-09-06T09:13:34.344Z,990.50
2022-09-06T09:14:34.376Z,990.44
2022-09-06T09:15:38.328Z,990.43
2022-09-06T09:16:35.393Z,990.38
2022-09-06T09:17:34.286Z,990.30
2022-09-06T09:18:34.357Z,990.30
2022-09-06T09:19:34.329Z,990.23
2022-09-06T09:20:34.351Z,990.23
2022-09-06T09:21:34.238Z,990.22
2022-09-06T09:22:34.236Z,990.19
2022-09-06T09:23:34.240Z,990.15
2022-09-06T09:24:34.222Z,990.14
2022-09-06T09:25:34.253Z,990.10
2022-09-06T09:26:34.181Z,990.03
2022-09-06T09:27:34.202Z,990.01
2022-09-06T09:28:34.233Z,989.96
2022-09-06T09:29:36.429Z,989.93
2022-09-06T09:30:49.837Z,989.87
2022-09-06T09:31:35.248Z,989.90
2022-09-06T09:32:34.121Z,989.83
2022-09-06T09:33:34.136Z,989.79
2022-09-06T09:34:34.143Z,989.79
2022-09-06T09:35:34.120Z,989.72
2022-09-06T09:36:34.105Z,989.67
2022-09-06T09:37:52.367Z,989.67
2022-09-06T09:38:35.095Z,989.63
2022-09-06T09:39:34.113Z,989.61
2022-09-06T09:40:34.041Z,989.59
2022-09-06T09:41:34.042Z,989.64
2022-09-06T09:42:34.037Z,989.66
2022-09-06T09:43:34.055Z,989.71
2022-09-06T09:44:34.002Z,989.70
2022-09-06T09:45:33.992Z,989.76
2022-09-06T09:46:34.662Z,989.74
2022-09-06T09:47:34.221Z,989.75
2022-09-06T09:48:33.955Z,989.76
2022-09-06T09:49:33.966Z,989.75
2022-09-06T09:50:33.936Z,989.76
2022-09-06T09:51:33.912Z,989.76
2022-09-06T09:52:33.984Z,989.77
2022-09-06T09:53:33.935Z,989.81
2022-09-06T09:54:33.912Z,989.79
2022-09-06T09:55:33.945Z,989.84
2022-09-06T09:56:33.976Z,989.82
2022-09-06T09:57:33.847Z,989.95
2022-09-06T09:58:33.884Z,989.85
2022-09-06T09:59:33.824Z,989.91
2022-09-06T10:00:33.871Z,989.90
2022-09-06T10:01:33.816Z,989.96
2022-09-06T10:02:33.802Z,989.85
2022-09-06T10:03:34.271Z,989.89
2022-09-06T10:04:49.260Z,989.92
2022-09-06T10:05:35.920Z,989.89
2022-09-06T10:07:34.763Z,989.97
2022-09-06T10:08:33.751Z,989.99
2022-09-06T10:09:33.765Z,990.03
2022-09-06T10:10:33.743Z,990.02
2022-09-06T10:11:33.734Z,989.95
2022-09-06T10:12:33.736Z,989.90
2022-09-06T10:13:34.068Z,990.05
2022-09-06T10:14:33.752Z,989.94
2022-09-06T10:15:33.661Z,989.99
2022-09-06T10:16:33.697Z,990.03
2022-09-06T10:17:33.644Z,990.01
2022-09-06T10:18:33.668Z,990.00
2022-09-06T10:19:33.623Z,990.01
2022-09-06T10:20:33.614Z,990.05
2022-09-06T10:21:33.671Z,989.99
2022-09-06T10:22:33.673Z,989.97
2022-09-06T10:24:34.558Z,989.95
2022-09-06T10:25:33.552Z,989.85
2022-09-06T10:26:33.561Z,989.93
2022-09-06T10:27:33.533Z,989.95
2022-09-06T10:28:33.549Z,989.81
2022-09-06T10:29:33.519Z,989.82
2022-09-06T10:30:34.062Z,989.98
2022-09-06T10:31:33.867Z,989.87
2022-09-06T10:32:33.642Z,989.91
2022-09-06T10:33:33.494Z,989.83
2022-09-06T10:34:33.490Z,989.86
2022-09-06T10:35:33.446Z,989.81
2022-09-06T10:36:33.453Z,989.85
2022-09-06T10:37:33.433Z,989.86
2022-09-06T10:38:33.423Z,989.93
2022-09-06T10:39:34.194Z,989.92
2022-09-06T10:40:33.626Z,989.91
2022-09-06T10:41:34.555Z,989.94
2022-09-06T10:42:33.388Z,989.91
2022-09-06T10:43:33.463Z,989.98
2022-09-06T10:44:33.366Z,989.93
2022-09-06T10:45:33.358Z,989.93
2022-09-06T10:46:33.439Z,989.94
2022-09-06T10:47:33.334Z,989.96
2022-09-06T10:48:33.848Z,989.97
2022-09-06T10:49:33.435Z,989.99
2022-09-06T10:50:35.416Z,990.08
2022-09-06T10:51:33.276Z,990.08
2022-09-06T10:52:33.264Z,990.13
2022-09-06T10:53:33.261Z,990.10
2022-09-06T10:54:33.244Z,990.15
2022-09-06T10:55:33.277Z,990.12
2022-09-06T10:56:33.229Z,990.09
2022-09-06T11:00:33.183Z,990.11
2022-09-06T11:01:33.260Z,990.16
2022-09-06T11:02:33.491Z,990.18
2022-09-06T11:06:34.809Z,990.24
2022-09-06T11:07:33.779Z,990.14
2022-09-06T11:08:49.160Z,990.19
2022-09-06T11:09:34.107Z,990.19
2022-09-06T11:10:33.088Z,990.23
2022-09-06T11:11:33.061Z,990.27
2022-09-06T11:12:33.056Z,990.25
2022-09-06T11:13:33.412Z,990.29
2022-09-06T11:14:33.095Z,990.25
2022-09-06T11:15:33.251Z,990.26
2022-09-06T11:16:34.268Z,990.22
2022-09-06T11:17:33.002Z,990.22
2022-09-06T11:18:33.015Z,990.15
2022-09-06T11:19:32.978Z,990.18
2022-09-06T11:20:32.983Z,990.04
2022-09-06T11:21:32.960Z,990.19
2022-09-06T11:22:32.946Z,990.20
2022-09-06T11:23:33.106Z,990.09
2022-09-06T11:24:33.362Z,990.10
2022-09-06T11:25:34.496Z,990.06
2022-09-06T11:26:32.906Z,990.10
2022-09-06T11:27:32.953Z,990.09
2022-09-06T11:28:32.938Z,990.12
2022-09-06T11:29:32.871Z,990.07
2022-09-06T11:30:32.890Z,990.17
2022-09-06T11:32:33.846Z,990.20
2022-09-06T11:33:32.972Z,990.16
2022-09-06T11:34:33.843Z,990.12
2022-09-06T11:35:32.844Z,990.11
2022-09-06T11:36:32.801Z,990.14
2022-09-06T11:37:32.821Z,990.06
2022-09-06T11:38:32.799Z,990.05
2022-09-06T11:40:33.761Z,990.03
2022-09-06T11:41:32.787Z,990.05
2022-09-06T11:42:33.053Z,990.13
2022-09-06T11:43:34.376Z,990.17
2022-09-06T11:44:32.728Z,990.18
2022-09-06T11:45:32.721Z,990.21
2022-09-06T11:46:32.749Z,990.27
2022-09-06T11:47:32.683Z,990.21
2022-09-06T11:48:32.734Z,990.24
2022-09-06T11:49:32.692Z,990.22
2022-09-06T11:50:32.681Z,990.26
2022-09-06T11:51:32.818Z,990.25
2022-09-06T11:52:33.633Z,990.23
2022-09-06T11:53:32.657Z,990.24
2022-09-06T11:54:32.669Z,990.24
2022-09-06T11:55:32.615Z,990.23
2022-09-06T11:56:32.632Z,990.25
2022-09-06T11:57:32.588Z,990.25
2022-09-06T11:58:32.582Z,990.29
2022-09-06T11:59:32.730Z,990.30
2022-09-06T12:00:32.681Z,990.23
2022-09-06T12:01:32.858Z,990.23
2022-09-06T12:02:32.761Z,990.20
2022-09-06T12:04:33.527Z,990.21
2022-09-06T12:05:32.496Z,990.25
2022-09-06T12:06:32.507Z,990.24
2022-09-06T12:07:32.471Z,990.20
2022-09-06T12:08:32.687Z,990.24
2022-09-06T12:09:32.571Z,990.26
2022-09-06T12:10:34.340Z,990.25
2022-09-06T12:11:32.440Z,990.21
2022-09-06T12:12:32.423Z,990.21
2022-09-06T12:13:32.433Z,990.17
2022-09-06T12:14:32.413Z,990.19
2022-09-06T12:15:32.390Z,990.21
2022-09-06T12:16:32.406Z,990.24
2022-09-06T12:17:32.414Z,990.26
2022-09-06T12:18:32.520Z,990.20
2022-09-06T12:19:34.542Z,990.22
2022-09-06T12:20:32.340Z,990.20
2022-09-06T12:21:32.325Z,990.28
2022-09-06T12:22:32.316Z,990.19
2022-09-06T12:23:32.382Z,990.22
2022-09-06T12:24:32.324Z,990.13
2022-09-06T12:25:32.288Z,990.15
2022-09-06T12:26:32.413Z,990.12
2022-09-06T12:27:33.090Z,990.09
2022-09-06T12:28:32.269Z,990.07
2022-09-06T12:29:32.242Z,990.08
2022-09-06T12:30:32.233Z,990.09
2022-09-06T12:31:32.341Z,990.05
2022-09-06T12:32:36.191Z,990.07
2022-09-06T12:33:32.214Z,990.04
2022-09-06T12:34:32.194Z,990.01
2022-09-06T12:36:33.327Z,990.00
2022-09-06T12:37:32.194Z,989.97
2022-09-06T12:38:32.183Z,989.95
2022-09-06T12:39:32.234Z,989.92
2022-09-06T12:40:32.190Z,989.92
2022-09-06T12:41:32.150Z,989.80
2022-09-06T12:42:32.110Z,989.80
2022-09-06T12:43:32.146Z,989.77
2022-09-06T12:44:32.731Z,989.79
2022-09-06T12:45:32.414Z,989.77
2022-09-06T12:46:32.093Z,989.86
2022-09-06T12:47:32.052Z,989.80
2022-09-06T12:48:32.054Z,989.77
2022-09-06T12:49:32.060Z,989.80
2022-09-06T12:50:32.034Z,989.71
2022-09-06T12:51:32.023Z,989.71
2022-09-06T12:52:31.993Z,989.67
2022-09-06T12:53:32.554Z,989.61
2022-09-06T12:54:32.452Z,989.63